New Cambria, KS (67470)

10:03 AM CST on March 01, 2015 (GMT -0600)
Solomon Schools | Change Station
CLOSE
Current Station
Personal Weather Station
Location: Solomon, KS
Elevation: 1237 ft
Nearby Weather Stations
Active Advisory: Winter Weather Advisory Active Notice: Public Information Statement

Elev 1237 ft 38.92 °N, 97.37 °W | Updated 8 seconds ago

Partly Cloudy
Partly Cloudy
24.7 °F
Feels Like 25 °F
N
2.0
Wind Variable Wind from NW
Gusts 6.0 mph

Today
High -- | Low -- °F
--% Chance of Precip.
Yesterday
High -- | Low -- °F
Precip. -- in
7:02 AM 6:22 PM
Waxing Gibbous, 86% visible
Pressure 30.47 in
Visibility 8.0 miles
Clouds Clear
Windchill 25 °F
Dew Point 19 °F
Humidity 78%
Rainfall 0.00 in
Snow Depth Not available.
UV 2.2 out of 12
Pollen .50 out of 12
Air Quality Not available.
Flu Activity Not available.
METAR KSLN 011553Z 32007KT 8SM CLR M03/M08 A3042 RMK AO2 SLP317 T10331078

More Conditions Fewer Conditions

Pressure 30.47 in
Visibility 8.0 miles
Clouds Clear
Windchill 25 °F
Dew Point 19 °F
Humidity 78%
Rainfall 0.00 in
Snow Depth Not available.
UV 2.2 out of 12
Pollen .50 out of 12
Air Quality Not available.
Flu Activity Not available.
METAR KSLN 011553Z 32007KT 8SM CLR M03/M08 A3042 RMK AO2 SLP317 T10331078

More Conditions Fewer Conditions

10-Day Weather Forecast

Almanac

Astronomy

Mar. 01, 2015 Rise Set
Actual Time
Civil Twilight
Nautical Twilight
Astronomical Twilight
Moon
Length of Visible Light
Length of Day
Tomorrow will be .
, % of the Moon is Illuminated

Today's Extremes

State Highs State Lows

Community

WunderPhotos

Upload Photos

1,801,440 photos uploaded!

WunderBlogs® & News

Nearby

Air Quality

  Air Quality AQ Index Pollutant
Not available.

Snow Depth

Station Depth Elevation

Earthquake Activity

City Distance Mag. Time & Date
Minimum magnitude displayed is 2.5.

Coastal Water Temperatures

Place Temperature

Nearby Weather Stations

Winter Weather Advisory
Statement as of 7:16 AM CST on March 01, 2015

... Winter Weather Advisory remains in effect until noon CST
today...

* timing... another round of light snow and sleet will affect the
advisory area early this morning. In addition... areas of
freezing fog will linger through the morning hours
today... mainly affecting southern Kansas.

* Snow and sleet accumulations... will remain light and generally
less than a half inch for locations along and south of the
Highway 50 corridor.

* Freezing fog... could create a light glaze on roadways and
elevated surfaces across southern Kansas.

* Main impacts... include reduced visibilities to around a mile at
times from areas of freezing fog... and possible slick spots on
any untreated roadways.

Precautionary/preparedness actions...

A Winter Weather Advisory means that periods of winter weather
will cause travel difficulties. Be prepared for slippery roads
and limited visibilities. Use caution while driving.



Lawson